Time;durP1;ratioP1;P1;durP2;ratioP2;P2;SDS_P1;SDS_P2;PMS_P1;PMS_P2;Temp;Humidity;BMP_temperature;BMP_pressure;BME280_temperature;BME280_humidity;BME280_pressure;Samples;Min_cycle;Max_cycle;Signal;HPM_P1;HPM_P2
2021/05/07 00:02:20;;;;;;;5.40;2.47;;;;;;;;;;4900730;29;20029;-81
2021/05/07 00:04:46;;;;;;;5.47;2.85;;;;;;;;;;4900980;29;20039;-80
2021/05/07 00:07:12;;;;;;;6.88;3.25;;;;;;;;;;4900289;29;20068;-79
2021/05/07 00:09:38;;;;;;;6.20;3.08;;;;;;;;;;4899758;29;20119;-82
2021/05/07 00:12:08;;;;;;;7.47;3.45;;;;;;;;;;4901771;29;20037;-82
2021/05/07 00:14:34;;;;;;;6.35;2.97;;;;;;;;;;4899962;29;20024;-81
2021/05/07 00:17:00;;;;;;;7.28;3.30;;;;;;;;;;4901575;29;20099;-80
2021/05/07 00:19:27;;;;;;;7.45;3.20;;;;;;;;;;4901017;29;20467;-82
2021/05/07 00:21:53;;;;;;;9.30;3.25;;;;;;;;;;4901246;29;20060;-82
2021/05/07 00:24:19;;;;;;;10.65;2.95;;;;;;;;;;4900770;29;20028;-82
2021/05/07 00:26:46;;;;;;;6.40;2.83;;;;;;;;;;4901270;29;20036;-83
2021/05/07 00:29:13;;;;;;;7.85;3.25;;;;;;;;;;4901361;29;20550;-81
2021/05/07 00:31:39;;;;;;;7.35;3.28;;;;;;;;;;4901682;29;20470;-89
2021/05/07 00:34:05;;;;;;;7.63;3.20;;;;;;;;;;4900955;29;20024;-82
2021/05/07 00:36:32;;;;;;;5.25;2.90;;;;;;;;;;4901823;29;20052;-82
2021/05/07 00:38:58;;;;;;;9.88;3.08;;;;;;;;;;4899405;29;20092;-82
2021/05/07 00:41:25;;;;;;;6.88;3.47;;;;;;;;;;4899448;29;20032;-83
2021/05/07 00:43:53;;;;;;;8.05;3.00;;;;;;;;;;4899938;29;20024;-84
2021/05/07 00:46:20;;;;;;;7.32;3.33;;;;;;;;;;4900948;29;20033;-81
2021/05/07 00:48:46;;;;;;;9.70;3.40;;;;;;;;;;4901025;29;20108;-81
2021/05/07 00:51:12;;;;;;;5.57;3.03;;;;;;;;;;4901447;29;20029;-82
2021/05/07 00:53:39;;;;;;;6.60;3.03;;;;;;;;;;4899207;29;20092;-82
2021/05/07 00:56:05;;;;;;;7.18;2.65;;;;;;;;;;4900560;29;20052;-81
2021/05/07 00:58:35;;;;;;;7.13;3.13;;;;;;;;;;4899433;29;20494;-82
2021/05/07 01:01:01;;;;;;;8.63;2.92;;;;;;;;;;4900865;29;20032;-81
2021/05/07 01:03:27;;;;;;;5.32;2.85;;;;;;;;;;4900615;29;20052;-82
2021/05/07 01:05:53;;;;;;;6.22;3.03;;;;;;;;;;4899390;29;20032;-80
2021/05/07 01:08:20;;;;;;;5.50;2.92;;;;;;;;;;4900849;29;20085;-81
2021/05/07 01:10:47;;;;;;;8.82;3.35;;;;;;;;;;4898712;29;20051;-83
2021/05/07 01:13:13;;;;;;;7.57;3.47;;;;;;;;;;4899014;29;20394;-81
2021/05/07 01:15:39;;;;;;;10.10;3.05;;;;;;;;;;4898918;29;20031;-81
2021/05/07 01:18:06;;;;;;;10.00;3.20;;;;;;;;;;4899099;29;20029;-81
2021/05/07 01:20:33;;;;;;;5.72;2.90;;;;;;;;;;4900117;29;20036;-82
2021/05/07 01:23:07;;;;;;;8.43;3.40;;;;;;;;;;4899214;29;20028;-82
2021/05/07 01:25:38;;;;;;;6.72;3.50;;;;;;;;;;4898683;29;20434;-80
2021/05/07 01:28:05;;;;;;;7.97;3.22;;;;;;;;;;4898444;29;20036;-82
2021/05/07 01:30:36;;;;;;;7.03;3.70;;;;;;;;;;4898228;29;20055;-82
2021/05/07 01:33:02;;;;;;;9.18;3.72;;;;;;;;;;4898678;29;20028;-81
2021/05/07 01:35:35;;;;;;;7.00;3.00;;;;;;;;;;4898511;29;20028;-80
2021/05/07 01:38:02;;;;;;;8.20;3.28;;;;;;;;;;4898739;29;20060;-83
2021/05/07 01:40:30;;;;;;;6.20;3.50;;;;;;;;;;4898855;29;20032;-82
2021/05/07 01:42:59;;;;;;;7.30;3.22;;;;;;;;;;4899887;29;20081;-83
2021/05/07 01:45:27;;;;;;;7.97;3.42;;;;;;;;;;4900426;29;20370;-82
2021/05/07 01:47:54;;;;;;;7.30;2.90;;;;;;;;;;4898210;29;20033;-81
2021/05/07 01:50:25;;;;;;;11.45;3.35;;;;;;;;;;4898614;29;20039;-80
2021/05/07 01:52:51;;;;;;;8.35;3.00;;;;;;;;;;4898775;29;20482;-82
2021/05/07 01:55:22;;;;;;;11.93;3.92;;;;;;;;;;4898478;29;20027;-81
2021/05/07 01:57:48;;;;;;;8.13;3.20;;;;;;;;;;4898559;29;20039;-82
2021/05/07 02:00:16;;;;;;;10.82;3.47;;;;;;;;;;4898098;29;20013;-81
2021/05/07 02:02:43;;;;;;;8.10;3.30;;;;;;;;;;4898680;29;20113;-82
2021/05/07 02:05:10;;;;;;;6.57;3.20;;;;;;;;;;4897973;29;20038;-81
2021/05/07 02:07:36;;;;;;;7.28;2.80;;;;;;;;;;4900015;29;20040;-80
2021/05/07 02:10:06;;;;;;;6.75;2.85;;;;;;;;;;4898945;29;20554;-81
2021/05/07 02:12:32;;;;;;;10.05;3.58;;;;;;;;;;4898325;29;20412;-82
2021/05/07 02:14:58;;;;;;;6.18;3.25;;;;;;;;;;4900050;29;20160;-82
2021/05/07 02:17:24;;;;;;;6.65;2.80;;;;;;;;;;4898283;29;20084;-83
2021/05/07 02:19:50;;;;;;;10.55;3.60;;;;;;;;;;4899356;29;20029;-78
2021/05/07 02:22:17;;;;;;;7.85;3.35;;;;;;;;;;4897730;29;20029;-82
2021/05/07 02:24:43;;;;;;;7.65;3.78;;;;;;;;;;4899695;29;20024;-79
2021/05/07 02:27:09;;;;;;;10.73;3.65;;;;;;;;;;4901710;29;20534;-81
2021/05/07 02:29:35;;;;;;;7.13;3.75;;;;;;;;;;4903702;29;20417;-79
2021/05/07 02:32:01;;;;;;;9.50;3.40;;;;;;;;;;4902559;29;20028;-82
2021/05/07 02:34:28;;;;;;;7.22;3.47;;;;;;;;;;4902580;29;20232;-82
2021/05/07 02:36:54;;;;;;;6.88;3.03;;;;;;;;;;4901226;29;20486;-81
2021/05/07 02:39:20;;;;;;;8.27;3.45;;;;;;;;;;4901228;29;20040;-81
2021/05/07 02:41:46;;;;;;;8.98;3.38;;;;;;;;;;4902829;29;20033;-83
2021/05/07 02:44:13;;;;;;;7.05;3.60;;;;;;;;;;4903670;29;20104;-82
2021/05/07 02:46:39;;;;;;;10.35;3.70;;;;;;;;;;4902507;29;20008;-80
2021/05/07 02:49:06;;;;;;;13.55;4.32;;;;;;;;;;4901576;29;20077;-83
2021/05/07 02:51:33;;;;;;;8.23;3.50;;;;;;;;;;4902354;29;20478;-82
2021/05/07 02:53:59;;;;;;;10.00;3.97;;;;;;;;;;4903338;29;20037;-79
2021/05/07 02:56:25;;;;;;;9.48;4.18;;;;;;;;;;4901586;29;20056;-80
2021/05/07 02:58:52;;;;;;;11.48;4.60;;;;;;;;;;4901252;29;20417;-79
2021/05/07 03:01:18;;;;;;;15.38;5.40;;;;;;;;;;4901477;29;20111;-82
2021/05/07 03:03:45;;;;;;;12.75;5.35;;;;;;;;;;4901176;29;20120;-82
2021/05/07 03:06:11;;;;;;;17.90;5.03;;;;;;;;;;4901992;29;20033;-81
2021/05/07 03:08:37;;;;;;;9.95;4.28;;;;;;;;;;4901346;29;20140;-82
2021/05/07 03:11:04;;;;;;;15.43;4.70;;;;;;;;;;4902667;29;20020;-82
2021/05/07 03:13:30;;;;;;;11.93;5.15;;;;;;;;;;4902641;29;20397;-82
2021/05/07 03:15:57;;;;;;;9.32;4.10;;;;;;;;;;4902641;29;20088;-82
2021/05/07 03:18:24;;;;;;;12.68;4.72;;;;;;;;;;4902328;29;20033;-82
2021/05/07 03:20:50;;;;;;;11.73;4.40;;;;;;;;;;4902385;29;20021;-82
2021/05/07 03:23:17;;;;;;;13.20;4.53;;;;;;;;;;4901908;29;20470;-83
2021/05/07 03:25:44;;;;;;;8.02;3.50;;;;;;;;;;4902083;29;20096;-83
2021/05/07 03:28:11;;;;;;;7.78;3.22;;;;;;;;;;4900827;29;20037;-82
2021/05/07 03:30:37;;;;;;;9.20;3.63;;;;;;;;;;4901270;29;20065;-82
2021/05/07 03:33:04;;;;;;;6.60;3.08;;;;;;;;;;4900943;29;20049;-81
2021/05/07 03:35:31;;;;;;;6.68;3.30;;;;;;;;;;4900920;29;20554;-82
2021/05/07 03:37:57;;;;;;;6.18;3.13;;;;;;;;;;4899575;29;20115;-82
2021/05/07 03:40:23;;;;;;;14.52;3.13;;;;;;;;;;4900652;29;20024;-82
2021/05/07 03:42:49;;;;;;;5.95;2.70;;;;;;;;;;4900871;29;20065;-83
2021/05/07 03:45:16;;;;;;;5.90;2.70;;;;;;;;;;4902037;29;20036;-82
2021/05/07 03:47:43;;;;;;;6.32;2.85;;;;;;;;;;4901650;29;20088;-82
2021/05/07 03:50:09;;;;;;;6.00;2.95;;;;;;;;;;4902282;29;20032;-80
2021/05/07 03:52:35;;;;;;;5.30;2.53;;;;;;;;;;4900650;29;20028;-82
2021/05/07 03:55:02;;;;;;;8.98;3.00;;;;;;;;;;4900300;29;20084;-81
2021/05/07 03:57:28;;;;;;;10.80;3.83;;;;;;;;;;4902130;29;20301;-83
2021/05/07 03:59:54;;;;;;;13.57;5.60;;;;;;;;;;4899681;29;20390;-83
2021/05/07 04:02:20;;;;;;;14.63;6.00;;;;;;;;;;4901720;29;20072;-82
2021/05/07 04:04:47;;;;;;;10.90;5.32;;;;;;;;;;4901341;29;20033;-83
2021/05/07 04:07:14;;;;;;;11.35;4.25;;;;;;;;;;4901261;29;20161;-83
2021/05/07 04:09:46;;;;;;;6.05;3.22;;;;;;;;;;4899751;29;20036;-80
2021/05/07 04:14:38;;;;;;;7.80;3.35;;;;;;;;;;4901378;29;20439;-83
2021/05/07 04:17:04;;;;;;;8.10;2.80;;;;;;;;;;4901809;29;20111;-83
2021/05/07 04:19:31;;;;;;;4.32;2.42;;;;;;;;;;4899837;29;20035;-82
2021/05/07 04:21:57;;;;;;;9.27;3.08;;;;;;;;;;4899494;29;20031;-80
2021/05/07 04:24:23;;;;;;;11.13;2.47;;;;;;;;;;4900551;29;20057;-81
2021/05/07 04:26:49;;;;;;;5.05;2.35;;;;;;;;;;4899214;29;20040;-81
2021/05/07 04:29:15;;;;;;;7.43;2.72;;;;;;;;;;4899360;29;20443;-81
2021/05/07 04:31:42;;;;;;;6.38;2.47;;;;;;;;;;4900632;29;20035;-82
2021/05/07 04:34:08;;;;;;;4.65;2.10;;;;;;;;;;4899608;29;20207;-82
2021/05/07 04:36:34;;;;;;;4.32;2.20;;;;;;;;;;4899750;29;20462;-81
2021/05/07 04:39:00;;;;;;;6.68;2.45;;;;;;;;;;4900418;29;20028;-80
2021/05/07 04:41:26;;;;;;;6.53;2.25;;;;;;;;;;4899760;29;20098;-80
2021/05/07 04:43:53;;;;;;;5.68;2.65;;;;;;;;;;4901102;29;20498;-81
2021/05/07 04:46:19;;;;;;;6.63;2.33;;;;;;;;;;4900123;29;20394;-80
2021/05/07 04:48:45;;;;;;;4.93;2.20;;;;;;;;;;4898946;29;20040;-82
2021/05/07 04:51:11;;;;;;;5.38;2.10;;;;;;;;;;4899433;29;20032;-84
2021/05/07 04:53:37;;;;;;;3.85;2.10;;;;;;;;;;4898940;29;20035;-83
2021/05/07 04:56:03;;;;;;;7.55;2.33;;;;;;;;;;4899154;29;20088;-83
2021/05/07 04:58:29;;;;;;;7.07;3.08;;;;;;;;;;4900754;29;20521;-82
2021/05/07 05:00:55;;;;;;;9.18;3.20;;;;;;;;;;4899364;29;20033;-83
2021/05/07 05:03:22;;;;;;;6.13;3.00;;;;;;;;;;4900416;29;20025;-85
2021/05/07 05:05:48;;;;;;;5.13;2.60;;;;;;;;;;4901259;29;20091;-85
2021/05/07 05:08:20;;;;;;;9.32;2.75;;;;;;;;;;4899239;29;20037;-85
2021/05/07 05:10:46;;;;;;;8.07;2.70;;;;;;;;;;4900216;29;20091;-86
2021/05/07 05:13:12;;;;;;;6.03;3.10;;;;;;;;;;4899282;29;20037;-84
2021/05/07 05:15:39;;;;;;;12.93;3.05;;;;;;;;;;4899326;29;20091;-84
2021/05/07 05:18:05;;;;;;;6.38;2.63;;;;;;;;;;4899264;29;20029;-82
2021/05/07 05:20:31;;;;;;;7.43;2.83;;;;;;;;;;4899229;29;20016;-84
2021/05/07 05:22:58;;;;;;;6.20;3.30;;;;;;;;;;4900054;29;20084;-84
2021/05/07 05:25:24;;;;;;;7.57;3.35;;;;;;;;;;4899499;29;20394;-86
2021/05/07 05:27:50;;;;;;;10.18;2.97;;;;;;;;;;4899031;29;20127;-88
2021/05/07 05:30:16;;;;;;;7.28;2.17;;;;;;;;;;4890790;29;20522;-86
2021/05/07 05:32:42;;;;;;;2.13;1.13;;;;;;;;;;4887429;29;20368;-86
2021/05/07 05:35:09;;;;;;;4.07;1.00;;;;;;;;;;4880255;29;20033;-86
2021/05/07 05:37:35;;;;;;;2.05;0.90;;;;;;;;;;4880224;29;20052;-83
2021/05/07 05:40:01;;;;;;;2.28;0.85;;;;;;;;;;4880458;29;20029;-83
2021/05/07 05:42:27;;;;;;;2.40;0.95;;;;;;;;;;4879537;29;20089;-86
2021/05/07 05:44:53;;;;;;;3.15;0.88;;;;;;;;;;4879171;29;20116;-86
2021/05/07 05:47:19;;;;;;;3.42;1.13;;;;;;;;;;4880955;29;20064;-84
2021/05/07 05:49:46;;;;;;;2.40;1.13;;;;;;;;;;4879515;29;20117;-82
2021/05/07 05:52:12;;;;;;;3.92;1.08;;;;;;;;;;4879395;29;20085;-86
2021/05/07 05:54:38;;;;;;;4.30;1.40;;;;;;;;;;4879607;29;20479;-87
2021/05/07 05:57:04;;;;;;;2.58;1.02;;;;;;;;;;4879867;29;20036;-87
2021/05/07 05:59:30;;;;;;;3.05;1.30;;;;;;;;;;4879686;29;20124;-82
2021/05/07 06:01:56;;;;;;;3.90;0.90;;;;;;;;;;4878782;29;20031;-87
2021/05/07 06:04:22;;;;;;;3.28;0.80;;;;;;;;;;4879407;29;20033;-82
2021/05/07 06:06:48;;;;;;;4.40;0.90;;;;;;;;;;4879795;29;20400;-87
2021/05/07 06:09:15;;;;;;;3.88;1.10;;;;;;;;;;4879614;29;20386;-83
2021/05/07 06:11:41;;;;;;;5.18;1.30;;;;;;;;;;4880133;29;20379;-84
2021/05/07 06:14:07;;;;;;;4.60;1.20;;;;;;;;;;4879726;29;20035;-83
2021/05/07 06:16:33;;;;;;;2.38;0.88;;;;;;;;;;4879687;29;20029;-84
2021/05/07 06:18:59;;;;;;;2.28;1.00;;;;;;;;;;4878826;29;20032;-85
2021/05/07 06:21:25;;;;;;;1.92;0.80;;;;;;;;;;4880372;29;20040;-80
2021/05/07 06:23:51;;;;;;;2.35;1.10;;;;;;;;;;4881008;29;20471;-84
2021/05/07 06:26:17;;;;;;;1.75;0.85;;;;;;;;;;4879023;29;20128;-86
2021/05/07 06:28:43;;;;;;;4.10;0.60;;;;;;;;;;4879183;29;20053;-87
2021/05/07 06:31:09;;;;;;;4.05;0.88;;;;;;;;;;4879335;29;20033;-86
2021/05/07 06:33:35;;;;;;;1.70;0.77;;;;;;;;;;4879589;29;20036;-85
2021/05/07 06:36:01;;;;;;;1.63;0.70;;;;;;;;;;4880690;29;20505;-85
2021/05/07 06:38:28;;;;;;;2.65;0.80;;;;;;;;;;4880024;29;20496;-85
2021/05/07 06:40:54;;;;;;;3.53;0.73;;;;;;;;;;4878482;29;20089;-83
2021/05/07 06:43:20;;;;;;;1.98;0.70;;;;;;;;;;4879124;29;20064;-83
2021/05/07 06:45:46;;;;;;;1.60;0.70;;;;;;;;;;4880833;29;20105;-83
2021/05/07 06:48:12;;;;;;;6.63;1.00;;;;;;;;;;4880145;29;20056;-82
2021/05/07 06:50:38;;;;;;;4.30;1.10;;;;;;;;;;4880075;29;20505;-85
2021/05/07 06:53:04;;;;;;;2.47;0.90;;;;;;;;;;4880695;29;20081;-83
2021/05/07 06:55:30;;;;;;;4.80;1.15;;;;;;;;;;4878800;29;20410;-83
2021/05/07 06:57:56;;;;;;;2.08;1.00;;;;;;;;;;4882407;29;20033;-85
2021/05/07 07:00:23;;;;;;;3.22;0.93;;;;;;;;;;4880924;29;20550;-84
2021/05/07 07:02:49;;;;;;;1.95;0.90;;;;;;;;;;4878766;29;20029;-85
2021/05/07 07:05:15;;;;;;;4.88;1.17;;;;;;;;;;4878830;29;20040;-84
2021/05/07 07:07:41;;;;;;;2.53;0.95;;;;;;;;;;4879113;29;20033;-84
2021/05/07 07:10:07;;;;;;;7.07;0.98;;;;;;;;;;4878410;29;20080;-85
2021/05/07 07:12:33;;;;;;;4.07;0.90;;;;;;;;;;4881716;29;20036;-82
2021/05/07 07:15:01;;;;;;;4.82;0.82;;;;;;;;;;4882957;29;20036;-85
2021/05/07 07:17:27;;;;;;;4.18;0.98;;;;;;;;;;4883189;29;20108;-84
2021/05/07 07:19:53;;;;;;;5.18;0.85;;;;;;;;;;4882468;29;20029;-82
2021/05/07 07:22:20;;;;;;;1.77;0.70;;;;;;;;;;4881813;29;20443;-84
2021/05/07 07:24:47;;;;;;;3.15;0.93;;;;;;;;;;4882868;29;20471;-86
2021/05/07 07:27:13;;;;;;;10.68;1.58;;;;;;;;;;4881800;29;20045;-84
2021/05/07 07:29:39;;;;;;;3.15;1.30;;;;;;;;;;4883153;29;20121;-84
2021/05/07 07:32:06;;;;;;;4.22;1.50;;;;;;;;;;4882142;29;20061;-85
2021/05/07 07:34:32;;;;;;;6.72;1.45;;;;;;;;;;4882175;29;20029;-83
2021/05/07 07:36:58;;;;;;;3.33;1.33;;;;;;;;;;4882364;29;20124;-83
2021/05/07 07:39:24;;;;;;;3.17;1.35;;;;;;;;;;4883158;29;20045;-83
2021/05/07 07:41:50;;;;;;;5.13;1.40;;;;;;;;;;4881806;29;20064;-83
2021/05/07 07:44:18;;;;;;;8.02;1.25;;;;;;;;;;4881990;29;20037;-84
2021/05/07 07:46:44;;;;;;;3.33;1.45;;;;;;;;;;4881683;29;20031;-86
2021/05/07 07:49:10;;;;;;;3.28;1.70;;;;;;;;;;4881692;29;20040;-85
2021/05/07 07:51:37;;;;;;;6.80;1.42;;;;;;;;;;4883361;29;20080;-85
2021/05/07 07:54:04;;;;;;;5.95;1.67;;;;;;;;;;4881736;29;20107;-85
2021/05/07 07:56:30;;;;;;;4.07;1.13;;;;;;;;;;4882632;29;20033;-84
2021/05/07 07:58:57;;;;;;;5.85;1.20;;;;;;;;;;4881365;29;20033;-83
2021/05/07 08:01:23;;;;;;;3.83;1.20;;;;;;;;;;4883176;29;20455;-81
2021/05/07 08:03:49;;;;;;;2.58;0.95;;;;;;;;;;4883005;29;20039;-86
2021/05/07 08:06:16;;;;;;;3.97;1.05;;;;;;;;;;4882307;29;20041;-82
2021/05/07 08:08:42;;;;;;;2.15;0.57;;;;;;;;;;4881976;29;20037;-82
2021/05/07 08:11:08;;;;;;;1.25;0.30;;;;;;;;;;4881305;29;20021;-83
2021/05/07 08:13:34;;;;;;;2.22;0.43;;;;;;;;;;4881248;29;20033;-83
2021/05/07 08:16:00;;;;;;;2.08;0.52;;;;;;;;;;4881149;29;20124;-85
2021/05/07 08:18:26;;;;;;;2.78;0.40;;;;;;;;;;4881384;29;20065;-84
2021/05/07 08:20:53;;;;;;;5.47;0.40;;;;;;;;;;4881401;29;20017;-84
2021/05/07 08:23:19;;;;;;;1.92;0.50;;;;;;;;;;4882769;29;20033;-83
2021/05/07 08:25:45;;;;;;;1.15;0.32;;;;;;;;;;4880222;29;20025;-84
2021/05/07 08:28:11;;;;;;;1.25;0.38;;;;;;;;;;4880470;29;20080;-84
2021/05/07 08:30:37;;;;;;;0.60;0.25;;;;;;;;;;4882439;29;20435;-84
2021/05/07 08:33:04;;;;;;;0.85;0.30;;;;;;;;;;4880628;29;20033;-84
2021/05/07 08:35:32;;;;;;;3.10;0.50;;;;;;;;;;4881821;29;20172;-84
2021/05/07 08:37:59;;;;;;;1.23;0.40;;;;;;;;;;4882282;29;20508;-84
2021/05/07 08:40:25;;;;;;;2.30;0.40;;;;;;;;;;4883254;29;20025;-83
2021/05/07 08:42:51;;;;;;;1.50;0.40;;;;;;;;;;4880396;29;20562;-83
2021/05/07 08:45:17;;;;;;;1.25;0.35;;;;;;;;;;4881084;29;20029;-84
2021/05/07 08:47:44;;;;;;;1.33;0.28;;;;;;;;;;4880728;29;20073;-84
2021/05/07 08:50:10;;;;;;;0.77;0.20;;;;;;;;;;4882087;29;20493;-85
2021/05/07 08:52:37;;;;;;;0.50;0.30;;;;;;;;;;4880312;29;20029;-84
2021/05/07 08:55:04;;;;;;;0.77;0.30;;;;;;;;;;4880699;29;20479;-82
2021/05/07 08:57:30;;;;;;;0.90;0.30;;;;;;;;;;4880150;29;20491;-84
2021/05/07 08:59:56;;;;;;;1.15;0.30;;;;;;;;;;4881206;29;20120;-84
2021/05/07 09:02:26;;;;;;;1.30;0.45;;;;;;;;;;4880474;29;20051;-84
2021/05/07 09:04:53;;;;;;;0.80;0.25;;;;;;;;;;4880818;29;20127;-84
2021/05/07 09:07:20;;;;;;;0.65;0.20;;;;;;;;;;4882292;29;20439;-83
2021/05/07 09:09:50;;;;;;;0.73;0.30;;;;;;;;;;4880612;29;20025;-84
2021/05/07 09:12:30;;;;;;;1.23;0.40;;;;;;;;;;4882062;29;20104;-83
2021/05/07 09:14:57;;;;;;;4.43;0.38;;;;;;;;;;4881956;29;20021;-83
2021/05/07 09:17:24;;;;;;;3.88;0.40;;;;;;;;;;4879536;29;20399;-84
2021/05/07 09:19:50;;;;;;;0.40;0.20;;;;;;;;;;4882061;29;20505;-84
2021/05/07 09:22:23;;;;;;;0.70;0.30;;;;;;;;;;4880731;29;20029;-84
2021/05/07 09:24:49;;;;;;;1.45;0.38;;;;;;;;;;4880815;29;20032;-83
2021/05/07 09:27:22;;;;;;;0.98;0.40;;;;;;;;;;4880082;29;20045;-85
2021/05/07 09:29:48;;;;;;;1.58;0.20;;;;;;;;;;4879926;29;20110;-84
2021/05/07 09:32:14;;;;;;;2.47;0.30;;;;;;;;;;4883819;29;20486;-85
2021/05/07 09:34:42;;;;;;;1.00;0.17;;;;;;;;;;4884665;29;20036;-87
2021/05/07 09:37:16;;;;;;;1.70;0.20;;;;;;;;;;4881772;29;20420;-86
2021/05/07 09:39:43;;;;;;;2.85;0.40;;;;;;;;;;4881599;29;20096;-82
2021/05/07 09:42:09;;;;;;;1.10;0.30;;;;;;;;;;4881174;29;20025;-85
2021/05/07 09:44:35;;;;;;;0.60;0.25;;;;;;;;;;4879965;29;20033;-84
2021/05/07 09:47:12;;;;;;;2.97;0.40;;;;;;;;;;4879830;29;20076;-82
2021/05/07 09:49:39;;;;;;;1.38;0.20;;;;;;;;;;4881443;29;20123;-84
2021/05/07 09:52:05;;;;;;;1.05;0.30;;;;;;;;;;4879745;29;20423;-82
2021/05/07 09:54:32;;;;;;;0.38;0.13;;;;;;;;;;4879285;29;20061;-84
2021/05/07 09:56:58;;;;;;;0.20;0.10;;;;;;;;;;4879964;29;20406;-83
2021/05/07 09:59:24;;;;;;;2.40;0.15;;;;;;;;;;4881114;29;20141;-84
2021/05/07 10:01:51;;;;;;;2.67;0.30;;;;;;;;;;4879816;29;20029;-83
2021/05/07 10:04:17;;;;;;;0.98;0.20;;;;;;;;;;4879875;29;20049;-86
2021/05/07 10:06:44;;;;;;;1.65;0.28;;;;;;;;;;4879383;29;20449;-86
2021/05/07 10:09:11;;;;;;;1.17;0.22;;;;;;;;;;4880311;29;20069;-82
2021/05/07 10:11:40;;;;;;;0.50;0.20;;;;;;;;;;4879674;29;20454;-83
2021/05/07 10:14:08;;;;;;;0.50;0.17;;;;;;;;;;4880076;29;20029;-87
2021/05/07 10:16:35;;;;;;;1.52;0.20;;;;;;;;;;4881001;29;20056;-88
2021/05/07 10:19:02;;;;;;;1.75;0.30;;;;;;;;;;4880362;29;20036;-85
2021/05/07 10:21:36;;;;;;;1.13;0.20;;;;;;;;;;4880930;29;20029;-84
2021/05/07 10:24:02;;;;;;;1.92;0.20;;;;;;;;;;4882635;29;20107;-87
2021/05/07 10:26:41;;;;;;;0.35;0.13;;;;;;;;;;4879340;29;20037;-86
2021/05/07 10:29:18;;;;;;;0.63;0.20;;;;;;;;;;4881863;29;20077;-88
2021/05/07 10:31:45;;;;;;;2.40;0.20;;;;;;;;;;4880791;29;20033;-86
2021/05/07 10:34:11;;;;;;;0.50;0.20;;;;;;;;;;4880243;29;20048;-85
2021/05/07 10:36:40;;;;;;;0.55;0.20;;;;;;;;;;4879964;29;20025;-86
2021/05/07 10:39:16;;;;;;;1.15;0.30;;;;;;;;;;4879689;29;20463;-85
2021/05/07 10:41:43;;;;;;;0.32;0.20;;;;;;;;;;4881091;29;20025;-87
2021/05/07 10:44:10;;;;;;;0.38;0.13;;;;;;;;;;4880977;29;20037;-83
2021/05/07 10:46:36;;;;;;;2.20;0.30;;;;;;;;;;4879508;29;20029;-83
2021/05/07 10:49:02;;;;;;;0.30;0.13;;;;;;;;;;4881464;29;20116;-86
2021/05/07 10:51:29;;;;;;;2.10;0.30;;;;;;;;;;4882964;29;20037;-83
2021/05/07 10:54:05;;;;;;;1.10;0.20;;;;;;;;;;4884601;29;20033;-86
2021/05/07 10:56:34;;;;;;;0.60;0.20;;;;;;;;;;4883767;29;20033;-86
2021/05/07 10:59:10;;;;;;;2.75;0.30;;;;;;;;;;4882743;29;20032;-85
2021/05/07 11:01:36;;;;;;;1.15;0.30;;;;;;;;;;4884474;29;20174;-86
2021/05/07 11:04:10;;;;;;;1.23;0.30;;;;;;;;;;4885457;29;20411;-86
2021/05/07 11:06:47;;;;;;;0.60;0.25;;;;;;;;;;4883752;29;20033;-82
2021/05/07 11:09:14;;;;;;;1.65;0.40;;;;;;;;;;4882017;29;20040;-83
2021/05/07 11:11:40;;;;;;;1.55;0.20;;;;;;;;;;4884438;29;20036;-83
2021/05/07 11:14:10;;;;;;;0.50;0.20;;;;;;;;;;4883925;29;20558;-85
2021/05/07 11:16:43;;;;;;;0.98;0.30;;;;;;;;;;4884098;29;20415;-82
2021/05/07 11:19:09;;;;;;;;;;;;;;;;;;4884293;29;20066;-82
2021/05/07 11:21:35;;;;;;;0.70;0.32;;;;;;;;;;4884026;29;19907;-83
2021/05/07 11:24:02;;;;;;;0.50;0.20;;;;;;;;;;4883141;29;20398;-85
2021/05/07 11:26:35;;;;;;;1.48;0.20;;;;;;;;;;4882523;29;20547;-85
2021/05/07 11:29:01;;;;;;;1.10;0.20;;;;;;;;;;4883592;29;20521;-82
2021/05/07 11:31:27;;;;;;;0.98;0.30;;;;;;;;;;4882257;29;20036;-86
2021/05/07 11:33:53;;;;;;;1.23;0.20;;;;;;;;;;4883659;29;20076;-85
2021/05/07 11:36:20;;;;;;;0.80;0.38;;;;;;;;;;4882638;29;20032;-81
2021/05/07 11:38:46;;;;;;;1.60;0.20;;;;;;;;;;4885209;29;20040;-84
2021/05/07 11:41:23;;;;;;;0.65;0.20;;;;;;;;;;4897484;29;20036;-89
2021/05/07 11:43:50;;;;;;;0.60;0.10;;;;;;;;;;4900558;29;20028;-87
2021/05/07 11:46:17;;;;;;;1.05;0.20;;;;;;;;;;4902112;29;20028;-83
2021/05/07 11:48:47;;;;;;;0.93;0.20;;;;;;;;;;4900658;29;20060;-87
2021/05/07 11:51:14;;;;;;;0.35;0.10;;;;;;;;;;4901991;29;20036;-86
2021/05/07 11:53:40;;;;;;;0.70;0.15;;;;;;;;;;4901259;29;20033;-85
2021/05/07 11:56:18;;;;;;;0.20;0.10;;;;;;;;;;4900543;29;20029;-88
2021/05/07 11:58:47;;;;;;;0.22;0.10;;;;;;;;;;4902245;29;20025;-87
2021/05/07 12:01:13;;;;;;;3.03;0.38;;;;;;;;;;4900715;29;20064;-81
2021/05/07 12:03:43;;;;;;;1.98;0.20;;;;;;;;;;4903749;29;20029;-84
2021/05/07 12:06:20;;;;;;;0.60;0.30;;;;;;;;;;4901660;29;20029;-83
2021/05/07 12:08:47;;;;;;;0.90;0.20;;;;;;;;;;4906102;29;20131;-84
2021/05/07 12:11:14;;;;;;;0.85;0.40;;;;;;;;;;4902000;29;20047;-86
2021/05/07 12:13:40;;;;;;;0.90;0.40;;;;;;;;;;4901019;29;20029;-86
2021/05/07 12:16:07;;;;;;;1.23;0.40;;;;;;;;;;4900658;29;20032;-87
2021/05/07 12:18:35;;;;;;;0.70;0.30;;;;;;;;;;4900294;29;20032;-87
2021/05/07 12:21:02;;;;;;;1.23;0.30;;;;;;;;;;4900237;29;20040;-88
2021/05/07 12:23:45;;;;;;;2.05;0.30;;;;;;;;;;4903415;29;20239;-86
2021/05/07 12:26:12;;;;;;;1.50;0.40;;;;;;;;;;4900190;29;20486;-85
2021/05/07 12:28:38;;;;;;;1.15;0.28;;;;;;;;;;4899884;29;20532;-83
2021/05/07 12:31:06;;;;;;;2.20;0.32;;;;;;;;;;4900884;29;20073;-83
2021/05/07 12:33:35;;;;;;;1.00;0.30;;;;;;;;;;4900276;29;20096;-86
2021/05/07 12:36:02;;;;;;;1.52;0.50;;;;;;;;;;4900258;29;20523;-86
2021/05/07 12:38:35;;;;;;;1.27;0.40;;;;;;;;;;4901305;29;20053;-85
2021/05/07 12:41:01;;;;;;;;;;;;;;;;;;4901525;29;20043;-87
2021/05/07 12:43:28;;;;;;;1.15;0.43;;;;;;;;;;4900968;29;19929;-83
2021/05/07 12:45:55;;;;;;;0.47;0.20;;;;;;;;;;4899895;29;20481;-86
2021/05/07 12:48:21;;;;;;;1.27;0.40;;;;;;;;;;4899015;29;20451;-86
2021/05/07 12:50:49;;;;;;;0.88;0.30;;;;;;;;;;4900930;29;20496;-86
2021/05/07 12:53:17;;;;;;;0.95;0.30;;;;;;;;;;4900246;29;20036;-87
2021/05/07 12:55:43;;;;;;;1.77;0.40;;;;;;;;;;4901760;29;20024;-87
2021/05/07 12:58:09;;;;;;;1.08;0.50;;;;;;;;;;4901946;29;20048;-86
2021/05/07 13:00:37;;;;;;;0.85;0.32;;;;;;;;;;4904814;29;20052;-87
2021/05/07 13:03:03;;;;;;;0.90;0.32;;;;;;;;;;4898834;29;20040;-86
2021/05/07 13:05:29;;;;;;;1.80;0.40;;;;;;;;;;4901117;29;20047;-84
2021/05/07 13:07:55;;;;;;;2.55;0.40;;;;;;;;;;4899583;29;20036;-86
2021/05/07 13:10:21;;;;;;;1.42;0.40;;;;;;;;;;4899572;29;20033;-87
2021/05/07 13:12:49;;;;;;;0.75;0.38;;;;;;;;;;4900129;29;20037;-88
2021/05/07 13:15:16;;;;;;;1.80;0.50;;;;;;;;;;4899065;29;20040;-87
2021/05/07 13:17:42;;;;;;;1.77;0.45;;;;;;;;;;4900987;29;20032;-87
2021/05/07 13:20:09;;;;;;;1.23;0.43;;;;;;;;;;4899953;29;20037;-87
2021/05/07 13:22:35;;;;;;;2.53;0.55;;;;;;;;;;4900624;29;20027;-84
2021/05/07 13:25:01;;;;;;;1.25;0.30;;;;;;;;;;4899416;29;20521;-82
2021/05/07 13:27:28;;;;;;;1.10;0.35;;;;;;;;;;4899062;29;20041;-87
2021/05/07 13:29:54;;;;;;;2.08;0.40;;;;;;;;;;4900364;29;20510;-86
2021/05/07 13:32:20;;;;;;;1.95;0.52;;;;;;;;;;4900149;29;20056;-87
2021/05/07 13:34:49;;;;;;;2.88;0.50;;;;;;;;;;4900380;29;20024;-87
2021/05/07 13:37:15;;;;;;;1.50;0.40;;;;;;;;;;4899075;29;20112;-86
2021/05/07 13:39:42;;;;;;;1.73;0.60;;;;;;;;;;4899244;29;20111;-88
2021/05/07 13:42:08;;;;;;;1.98;0.50;;;;;;;;;;4900281;29;20056;-84
2021/05/07 13:44:35;;;;;;;2.88;0.77;;;;;;;;;;4898919;29;20097;-84
2021/05/07 13:47:01;;;;;;;3.00;0.68;;;;;;;;;;4898683;29;20135;-83
2021/05/07 13:49:27;;;;;;;5.10;0.90;;;;;;;;;;4898637;29;20486;-87
2021/05/07 13:51:53;;;;;;;2.30;1.10;;;;;;;;;;4899982;29;20036;-85
2021/05/07 13:54:20;;;;;;;3.97;0.73;;;;;;;;;;4898699;29;20112;-85
2021/05/07 13:56:53;;;;;;;6.63;1.30;;;;;;;;;;4898584;29;20025;-85
2021/05/07 13:59:20;;;;;;;1.02;0.30;;;;;;;;;;4898554;29;20390;-85
2021/05/07 14:01:47;;;;;;;2.03;0.50;;;;;;;;;;4898865;29;20096;-88
2021/05/07 14:04:14;;;;;;;0.68;0.30;;;;;;;;;;4900158;29;20036;-89
2021/05/07 14:06:40;;;;;;;1.08;0.30;;;;;;;;;;4899686;29;20033;-86
2021/05/07 14:09:07;;;;;;;1.45;0.38;;;;;;;;;;4898953;29;20386;-85
2021/05/07 14:11:33;;;;;;;0.65;0.22;;;;;;;;;;4898990;29;20112;-87
2021/05/07 14:14:00;;;;;;;0.95;0.30;;;;;;;;;;4899429;29;20043;-86
2021/05/07 14:16:26;;;;;;;0.45;0.30;;;;;;;;;;4898856;29;20419;-85
2021/05/07 14:18:52;;;;;;;2.45;0.30;;;;;;;;;;4898566;29;20375;-87
2021/05/07 14:21:19;;;;;;;0.32;0.15;;;;;;;;;;4899585;29;20033;-88
2021/05/07 14:23:47;;;;;;;0.57;0.22;;;;;;;;;;4898621;29;20084;-90
2021/05/07 14:26:13;;;;;;;0.43;0.13;;;;;;;;;;4898554;29;20040;-86
2021/05/07 14:28:39;;;;;;;1.42;0.30;;;;;;;;;;4898214;29;20525;-88
2021/05/07 14:31:05;;;;;;;1.08;0.20;;;;;;;;;;4898530;29;20033;-87
2021/05/07 14:33:32;;;;;;;0.52;0.20;;;;;;;;;;4898587;29;20032;-88
2021/05/07 14:35:58;;;;;;;0.68;0.20;;;;;;;;;;4898764;29;20123;-87
2021/05/07 14:38:24;;;;;;;0.30;0.10;;;;;;;;;;4897806;29;20028;-88
2021/05/07 14:40:51;;;;;;;0.28;0.10;;;;;;;;;;4898501;29;20033;-88
2021/05/07 14:43:18;;;;;;;0.50;0.13;;;;;;;;;;4899933;29;20098;-89
2021/05/07 14:45:44;;;;;;;0.95;0.30;;;;;;;;;;4898702;29;20104;-88